logo
Search for airport 
image banner adimage banner adimage banner ad
image banner ad

FLMY - Maziba Bay

Located in Samabi, Zambia

ICAO - , IATA -

Data provided by Airmate  

General information

Coordinates: S16°41'40" E23°36'28"
Elevation is 3272 feet MSL.
Magnetic variation is -6° East
View others Airports in Western Province

Operational data

Special qualification required
Current time UTC:
Current local time:
Weather at : - ( 0 km )
METAR: PAFS 140101Z AUTO 23009KT 10SM FEW040 01/M09 A3002 RMK AO2 SLP177 T00061094 FZRANO
View NOTAMs / SUP AIP / TFR affecting this airport [VIEW]
Communications frequencies: [VIEW]

Runways:

RWY identifierQFULength (ft)Width (ft)SurfaceLDA (ft)
1090°398494DIRT
28270°398494DIRT

Airport contact information

Address: Samabi Zambia

Satellite view of FLMY